sensor_id;sensor_type;location;lat;lon;timestamp;P1;durP1;ratioP1;P2;durP2;ratioP2
67571;SDS011;54397;47.506;19.158;2023-02-15T00:01:15;57.77;;;31.90;;
67571;SDS011;54397;47.506;19.158;2023-02-15T00:04:40;59.63;;;31.63;;
67571;SDS011;54397;47.506;19.158;2023-02-15T00:08:07;56.23;;;31.03;;
67571;SDS011;54397;47.506;19.158;2023-02-15T00:11:29;54.60;;;31.53;;
67571;SDS011;54397;47.506;19.158;2023-02-15T00:15:10;53.23;;;32.60;;
67571;SDS011;54397;47.506;19.158;2023-02-15T00:18:33;58.23;;;31.60;;
67571;SDS011;54397;47.506;19.158;2023-02-15T00:21:55;63.73;;;33.17;;
67571;SDS011;54397;47.506;19.158;2023-02-15T00:25:17;58.53;;;30.83;;
67571;SDS011;54397;47.506;19.158;2023-02-15T00:28:41;58.93;;;34.50;;
67571;SDS011;54397;47.506;19.158;2023-02-15T00:32:03;62.70;;;34.57;;
67571;SDS011;54397;47.506;19.158;2023-02-15T00:35:27;67.07;;;35.80;;
67571;SDS011;54397;47.506;19.158;2023-02-15T00:38:49;66.53;;;34.30;;
67571;SDS011;54397;47.506;19.158;2023-02-15T00:42:10;64.60;;;36.17;;
67571;SDS011;54397;47.506;19.158;2023-02-15T00:45:32;62.63;;;34.77;;
67571;SDS011;54397;47.506;19.158;2023-02-15T00:48:53;65.27;;;34.63;;
67571;SDS011;54397;47.506;19.158;2023-02-15T00:52:17;62.33;;;33.10;;
67571;SDS011;54397;47.506;19.158;2023-02-15T00:55:44;67.13;;;34.37;;
67571;SDS011;54397;47.506;19.158;2023-02-15T00:59:10;65.17;;;34.20;;
67571;SDS011;54397;47.506;19.158;2023-02-15T01:02:34;59.20;;;32.53;;
67571;SDS011;54397;47.506;19.158;2023-02-15T01:05:56;61.93;;;34.30;;
67571;SDS011;54397;47.506;19.158;2023-02-15T01:09:17;65.40;;;34.87;;
67571;SDS011;54397;47.506;19.158;2023-02-15T01:12:41;65.07;;;34.83;;
67571;SDS011;54397;47.506;19.158;2023-02-15T01:16:06;59.03;;;33.30;;
67571;SDS011;54397;47.506;19.158;2023-02-15T01:19:28;61.33;;;34.20;;
67571;SDS011;54397;47.506;19.158;2023-02-15T01:22:50;66.37;;;33.37;;
67571;SDS011;54397;47.506;19.158;2023-02-15T01:26:13;62.53;;;34.10;;
67571;SDS011;54397;47.506;19.158;2023-02-15T01:29:36;68.43;;;35.10;;
67571;SDS011;54397;47.506;19.158;2023-02-15T01:32:57;61.60;;;35.30;;
67571;SDS011;54397;47.506;19.158;2023-02-15T01:36:19;61.37;;;35.07;;
67571;SDS011;54397;47.506;19.158;2023-02-15T01:39:41;64.23;;;35.80;;
67571;SDS011;54397;47.506;19.158;2023-02-15T01:43:03;62.10;;;34.70;;
67571;SDS011;54397;47.506;19.158;2023-02-15T01:46:29;62.97;;;35.33;;
67571;SDS011;54397;47.506;19.158;2023-02-15T01:53:48;63.97;;;35.23;;
67571;SDS011;54397;47.506;19.158;2023-02-15T01:57:18;70.03;;;36.47;;
67571;SDS011;54397;47.506;19.158;2023-02-15T02:00:45;69.82;;;36.17;;
67571;SDS011;54397;47.506;19.158;2023-02-15T02:07:41;57.00;;;32.93;;
67571;SDS011;54397;47.506;19.158;2023-02-15T02:11:13;65.70;;;34.07;;
67571;SDS011;54397;47.506;19.158;2023-02-15T02:14:39;60.73;;;34.87;;
67571;SDS011;54397;47.506;19.158;2023-02-15T02:44:26;71.50;;;34.47;;
67571;SDS011;54397;47.506;19.158;2023-02-15T02:48:05;65.90;;;35.33;;
67571;SDS011;54397;47.506;19.158;2023-02-15T02:51:31;63.90;;;33.90;;
67571;SDS011;54397;47.506;19.158;2023-02-15T02:54:53;56.57;;;32.50;;
67571;SDS011;54397;47.506;19.158;2023-02-15T03:01:58;61.90;;;32.20;;
67571;SDS011;54397;47.506;19.158;2023-02-15T03:05:26;61.25;;;34.03;;
67571;SDS011;54397;47.506;19.158;2023-02-15T03:08:51;63.33;;;34.30;;
67571;SDS011;54397;47.506;19.158;2023-02-15T03:12:21;82.10;;;43.87;;
67571;SDS011;54397;47.506;19.158;2023-02-15T03:15:51;106.07;;;52.60;;
67571;SDS011;54397;47.506;19.158;2023-02-15T03:19:33;55.83;;;31.77;;
67571;SDS011;54397;47.506;19.158;2023-02-15T03:23:10;61.13;;;31.57;;
67571;SDS011;54397;47.506;19.158;2023-02-15T03:26:38;54.27;;;31.00;;
67571;SDS011;54397;47.506;19.158;2023-02-15T03:30:01;57.97;;;33.17;;
67571;SDS011;54397;47.506;19.158;2023-02-15T03:33:24;64.40;;;31.80;;
67571;SDS011;54397;47.506;19.158;2023-02-15T03:40:29;63.77;;;32.27;;
67571;SDS011;54397;47.506;19.158;2023-02-15T03:44:36;54.77;;;30.67;;
67571;SDS011;54397;47.506;19.158;2023-02-15T03:48:03;57.05;;;31.35;;
67571;SDS011;54397;47.506;19.158;2023-02-15T03:51:28;74.73;;;39.27;;
67571;SDS011;54397;47.506;19.158;2023-02-15T03:54:57;50.90;;;30.67;;
67571;SDS011;54397;47.506;19.158;2023-02-15T03:58:22;62.07;;;32.27;;
67571;SDS011;54397;47.506;19.158;2023-02-15T04:05:38;62.43;;;31.23;;
67571;SDS011;54397;47.506;19.158;2023-02-15T04:09:03;58.00;;;31.20;;
67571;SDS011;54397;47.506;19.158;2023-02-15T04:12:43;58.50;;;30.77;;
67571;SDS011;54397;47.506;19.158;2023-02-15T04:16:08;57.80;;;29.93;;
67571;SDS011;54397;47.506;19.158;2023-02-15T04:19:35;60.60;;;31.50;;
67571;SDS011;54397;47.506;19.158;2023-02-15T04:23:15;66.10;;;33.67;;
67571;SDS011;54397;47.506;19.158;2023-02-15T04:26:56;61.37;;;31.57;;
67571;SDS011;54397;47.506;19.158;2023-02-15T04:30:22;57.67;;;31.13;;
67571;SDS011;54397;47.506;19.158;2023-02-15T04:33:45;61.03;;;30.87;;
67571;SDS011;54397;47.506;19.158;2023-02-15T04:37:09;64.17;;;33.13;;
67571;SDS011;54397;47.506;19.158;2023-02-15T04:40:35;67.47;;;32.57;;
67571;SDS011;54397;47.506;19.158;2023-02-15T04:43:57;55.93;;;30.23;;
67571;SDS011;54397;47.506;19.158;2023-02-15T04:47:19;66.20;;;34.90;;
67571;SDS011;54397;47.506;19.158;2023-02-15T04:50:41;134.77;;;56.93;;
67571;SDS011;54397;47.506;19.158;2023-02-15T04:54:05;68.07;;;33.97;;
67571;SDS011;54397;47.506;19.158;2023-02-15T04:57:26;60.50;;;31.63;;
67571;SDS011;54397;47.506;19.158;2023-02-15T05:00:48;59.77;;;32.43;;
67571;SDS011;54397;47.506;19.158;2023-02-15T05:04:12;60.93;;;30.77;;
67571;SDS011;54397;47.506;19.158;2023-02-15T05:07:34;65.47;;;31.70;;
67571;SDS011;54397;47.506;19.158;2023-02-15T05:10:55;55.73;;;30.83;;
67571;SDS011;54397;47.506;19.158;2023-02-15T05:14:17;63.97;;;31.70;;
67571;SDS011;54397;47.506;19.158;2023-02-15T05:17:39;63.33;;;31.20;;
67571;SDS011;54397;47.506;19.158;2023-02-15T05:21:04;58.17;;;30.27;;
67571;SDS011;54397;47.506;19.158;2023-02-15T05:24:25;60.50;;;30.83;;
67571;SDS011;54397;47.506;19.158;2023-02-15T05:28:08;65.80;;;34.40;;
67571;SDS011;54397;47.506;19.158;2023-02-15T05:31:43;56.50;;;31.23;;
67571;SDS011;54397;47.506;19.158;2023-02-15T05:35:11;53.00;;;29.53;;
67571;SDS011;54397;47.506;19.158;2023-02-15T05:38:38;60.37;;;30.13;;
67571;SDS011;54397;47.506;19.158;2023-02-15T05:42:05;57.30;;;29.10;;
67571;SDS011;54397;47.506;19.158;2023-02-15T05:45:27;57.47;;;29.53;;
67571;SDS011;54397;47.506;19.158;2023-02-15T05:48:51;60.67;;;29.73;;
67571;SDS011;54397;47.506;19.158;2023-02-15T05:52:12;61.33;;;29.53;;
67571;SDS011;54397;47.506;19.158;2023-02-15T05:55:36;56.80;;;30.03;;
67571;SDS011;54397;47.506;19.158;2023-02-15T05:58:59;51.10;;;28.50;;
67571;SDS011;54397;47.506;19.158;2023-02-15T06:02:26;63.73;;;30.30;;
67571;SDS011;54397;47.506;19.158;2023-02-15T06:05:50;56.73;;;30.90;;
67571;SDS011;54397;47.506;19.158;2023-02-15T06:09:12;57.50;;;32.20;;
67571;SDS011;54397;47.506;19.158;2023-02-15T06:12:36;57.87;;;31.07;;
67571;SDS011;54397;47.506;19.158;2023-02-15T06:16:00;57.80;;;30.27;;
67571;SDS011;54397;47.506;19.158;2023-02-15T06:19:22;58.07;;;30.90;;
67571;SDS011;54397;47.506;19.158;2023-02-15T06:22:46;62.43;;;32.60;;
67571;SDS011;54397;47.506;19.158;2023-02-15T06:26:08;64.60;;;32.30;;
67571;SDS011;54397;47.506;19.158;2023-02-15T06:29:30;64.03;;;32.63;;
67571;SDS011;54397;47.506;19.158;2023-02-15T06:32:56;59.00;;;32.70;;
67571;SDS011;54397;47.506;19.158;2023-02-15T06:36:18;66.30;;;34.07;;
67571;SDS011;54397;47.506;19.158;2023-02-15T06:39:42;65.43;;;33.83;;
67571;SDS011;54397;47.506;19.158;2023-02-15T06:43:05;60.00;;;34.90;;
67571;SDS011;54397;47.506;19.158;2023-02-15T06:46:27;65.93;;;35.27;;
67571;SDS011;54397;47.506;19.158;2023-02-15T06:49:51;63.77;;;32.77;;
67571;SDS011;54397;47.506;19.158;2023-02-15T06:53:18;63.27;;;32.87;;
67571;SDS011;54397;47.506;19.158;2023-02-15T06:56:39;62.70;;;31.20;;
67571;SDS011;54397;47.506;19.158;2023-02-15T07:00:04;58.50;;;28.60;;
67571;SDS011;54397;47.506;19.158;2023-02-15T07:03:29;54.30;;;27.73;;
67571;SDS011;54397;47.506;19.158;2023-02-15T07:06:51;43.50;;;25.90;;
67571;SDS011;54397;47.506;19.158;2023-02-15T07:10:15;45.73;;;25.03;;
67571;SDS011;54397;47.506;19.158;2023-02-15T07:13:37;40.80;;;25.27;;
67571;SDS011;54397;47.506;19.158;2023-02-15T07:16:59;46.27;;;25.63;;
67571;SDS011;54397;47.506;19.158;2023-02-15T07:20:21;40.77;;;24.23;;
67571;SDS011;54397;47.506;19.158;2023-02-15T07:23:44;43.87;;;23.87;;
67571;SDS011;54397;47.506;19.158;2023-02-15T07:27:08;43.67;;;26.13;;
67571;SDS011;54397;47.506;19.158;2023-02-15T07:30:29;45.00;;;25.73;;
67571;SDS011;54397;47.506;19.158;2023-02-15T07:33:54;40.57;;;24.57;;
67571;SDS011;54397;47.506;19.158;2023-02-15T07:37:15;40.50;;;24.63;;
67571;SDS011;54397;47.506;19.158;2023-02-15T07:40:37;49.87;;;26.93;;
67571;SDS011;54397;47.506;19.158;2023-02-15T07:43:59;51.87;;;24.60;;
67571;SDS011;54397;47.506;19.158;2023-02-15T07:47:21;43.47;;;23.93;;
67571;SDS011;54397;47.506;19.158;2023-02-15T07:50:45;43.83;;;24.80;;
67571;SDS011;54397;47.506;19.158;2023-02-15T07:54:06;38.23;;;23.37;;
67571;SDS011;54397;47.506;19.158;2023-02-15T07:57:30;34.17;;;23.13;;
67571;SDS011;54397;47.506;19.158;2023-02-15T08:00:52;36.93;;;23.17;;
67571;SDS011;54397;47.506;19.158;2023-02-15T08:04:25;35.37;;;22.90;;
67571;SDS011;54397;47.506;19.158;2023-02-15T08:07:46;44.20;;;25.23;;
67571;SDS011;54397;47.506;19.158;2023-02-15T08:14:51;40.13;;;25.73;;
67571;SDS011;54397;47.506;19.158;2023-02-15T08:18:15;34.27;;;23.03;;
67571;SDS011;54397;47.506;19.158;2023-02-15T08:21:42;34.70;;;23.30;;
67571;SDS011;54397;47.506;19.158;2023-02-15T08:25:08;37.50;;;24.08;;
67571;SDS011;54397;47.506;19.158;2023-02-15T08:28:29;32.90;;;23.35;;
67571;SDS011;54397;47.506;19.158;2023-02-15T08:31:55;35.58;;;24.50;;
67571;SDS011;54397;47.506;19.158;2023-02-15T08:35:20;38.88;;;25.00;;
67571;SDS011;54397;47.506;19.158;2023-02-15T08:38:41;35.28;;;24.67;;
67571;SDS011;54397;47.506;19.158;2023-02-15T08:42:03;39.00;;;26.02;;
67571;SDS011;54397;47.506;19.158;2023-02-15T08:45:25;35.42;;;24.77;;
67571;SDS011;54397;47.506;19.158;2023-02-15T08:48:50;40.22;;;26.52;;
67571;SDS011;54397;47.506;19.158;2023-02-15T08:52:12;46.20;;;27.08;;
67571;SDS011;54397;47.506;19.158;2023-02-15T08:55:35;41.08;;;25.90;;
67571;SDS011;54397;47.506;19.158;2023-02-15T08:58:57;42.17;;;26.90;;
67571;SDS011;54397;47.506;19.158;2023-02-15T09:02:19;39.08;;;25.88;;
67571;SDS011;54397;47.506;19.158;2023-02-15T09:05:40;42.78;;;26.77;;
67571;SDS011;54397;47.506;19.158;2023-02-15T09:09:02;50.45;;;26.55;;
67571;SDS011;54397;47.506;19.158;2023-02-15T09:12:27;38.90;;;26.88;;
67571;SDS011;54397;47.506;19.158;2023-02-15T09:15:51;39.72;;;25.85;;
67571;SDS011;54397;47.506;19.158;2023-02-15T09:19:23;31.55;;;20.70;;
67571;SDS011;54397;47.506;19.158;2023-02-15T09:22:47;27.63;;;17.73;;
67571;SDS011;54397;47.506;19.158;2023-02-15T09:26:10;30.25;;;18.17;;
67571;SDS011;54397;47.506;19.158;2023-02-15T09:29:33;23.63;;;16.90;;
67571;SDS011;54397;47.506;19.158;2023-02-15T09:32:55;24.23;;;16.52;;
67571;SDS011;54397;47.506;19.158;2023-02-15T09:36:18;24.60;;;16.23;;
67571;SDS011;54397;47.506;19.158;2023-02-15T09:39:46;32.20;;;15.98;;
67571;SDS011;54397;47.506;19.158;2023-02-15T09:43:13;24.52;;;16.60;;
67571;SDS011;54397;47.506;19.158;2023-02-15T09:57:29;26.50;;;17.77;;
67571;SDS011;54397;47.506;19.158;2023-02-15T10:19:38;32.58;;;21.77;;
67571;SDS011;54397;47.506;19.158;2023-02-15T10:27:13;28.30;;;19.23;;
67571;SDS011;54397;47.506;19.158;2023-02-15T10:34:54;28.60;;;17.20;;
67571;SDS011;54397;47.506;19.158;2023-02-15T10:53:11;24.42;;;16.48;;
67571;SDS011;54397;47.506;19.158;2023-02-15T10:56:42;22.13;;;15.40;;
67571;SDS011;54397;47.506;19.158;2023-02-15T11:00:35;21.48;;;15.98;;
67571;SDS011;54397;47.506;19.158;2023-02-15T11:07:40;25.02;;;17.70;;
67571;SDS011;54397;47.506;19.158;2023-02-15T11:11:07;24.73;;;16.92;;
67571;SDS011;54397;47.506;19.158;2023-02-15T11:21:55;22.40;;;17.63;;
67571;SDS011;54397;47.506;19.158;2023-02-15T11:25:23;25.88;;;18.70;;
67571;SDS011;54397;47.506;19.158;2023-02-15T11:28:49;26.05;;;19.23;;
67571;SDS011;54397;47.506;19.158;2023-02-15T11:32:20;28.23;;;20.08;;
67571;SDS011;54397;47.506;19.158;2023-02-15T11:35:48;24.38;;;18.52;;
67571;SDS011;54397;47.506;19.158;2023-02-15T11:39:15;26.23;;;19.17;;
67571;SDS011;54397;47.506;19.158;2023-02-15T11:42:39;25.13;;;19.02;;
67571;SDS011;54397;47.506;19.158;2023-02-15T11:46:02;28.10;;;20.77;;
67571;SDS011;54397;47.506;19.158;2023-02-15T11:52:52;36.17;;;21.55;;
67571;SDS011;54397;47.506;19.158;2023-02-15T11:56:20;27.67;;;19.90;;
67571;SDS011;54397;47.506;19.158;2023-02-15T11:59:48;28.77;;;19.60;;
67571;SDS011;54397;47.506;19.158;2023-02-15T12:03:37;25.88;;;18.23;;
67571;SDS011;54397;47.506;19.158;2023-02-15T12:07:32;27.17;;;20.77;;
67571;SDS011;54397;47.506;19.158;2023-02-15T12:11:09;27.35;;;19.50;;
67571;SDS011;54397;47.506;19.158;2023-02-15T12:14:49;26.33;;;20.17;;
67571;SDS011;54397;47.506;19.158;2023-02-15T12:18:56;26.73;;;20.27;;
67571;SDS011;54397;47.506;19.158;2023-02-15T12:22:00;29.85;;;20.58;;
67571;SDS011;54397;47.506;19.158;2023-02-15T12:25:35;29.58;;;20.23;;
67571;SDS011;54397;47.506;19.158;2023-02-15T12:29:00;26.60;;;20.85;;
67571;SDS011;54397;47.506;19.158;2023-02-15T12:32:30;26.52;;;19.80;;
67571;SDS011;54397;47.506;19.158;2023-02-15T12:39:53;29.67;;;22.05;;
67571;SDS011;54397;47.506;19.158;2023-02-15T12:43:27;25.13;;;19.77;;
67571;SDS011;54397;47.506;19.158;2023-02-15T12:50:24;22.33;;;17.27;;
67571;SDS011;54397;47.506;19.158;2023-02-15T12:53:58;25.17;;;19.23;;
67571;SDS011;54397;47.506;19.158;2023-02-15T12:57:29;22.70;;;17.90;;
67571;SDS011;54397;47.506;19.158;2023-02-15T13:04:25;25.50;;;19.63;;
67571;SDS011;54397;47.506;19.158;2023-02-15T13:07:53;27.00;;;19.02;;
67571;SDS011;54397;47.506;19.158;2023-02-15T13:11:20;29.65;;;20.45;;
67571;SDS011;54397;47.506;19.158;2023-02-15T13:14:47;27.97;;;21.23;;
67571;SDS011;54397;47.506;19.158;2023-02-15T13:18:14;28.20;;;21.85;;
67571;SDS011;54397;47.506;19.158;2023-02-15T13:21:57;30.52;;;21.50;;
67571;SDS011;54397;47.506;19.158;2023-02-15T13:25:27;28.80;;;20.88;;
67571;SDS011;54397;47.506;19.158;2023-02-15T13:28:54;28.27;;;20.73;;
67571;SDS011;54397;47.506;19.158;2023-02-15T13:43:33;30.67;;;20.77;;
67571;SDS011;54397;47.506;19.158;2023-02-15T14:08:44;32.40;;;21.45;;
67571;SDS011;54397;47.506;19.158;2023-02-15T14:19:57;37.78;;;21.85;;
67571;SDS011;54397;47.506;19.158;2023-02-15T14:31:15;34.33;;;24.00;;
67571;SDS011;54397;47.506;19.158;2023-02-15T14:34:48;33.45;;;23.15;;
67571;SDS011;54397;47.506;19.158;2023-02-15T14:38:15;34.95;;;22.95;;
67571;SDS011;54397;47.506;19.158;2023-02-15T14:41:55;35.60;;;22.40;;
67571;SDS011;54397;47.506;19.158;2023-02-15T14:52:26;34.63;;;24.13;;
67571;SDS011;54397;47.506;19.158;2023-02-15T14:56:32;33.25;;;23.27;;
67571;SDS011;54397;47.506;19.158;2023-02-15T15:03:22;54.75;;;32.95;;
67571;SDS011;54397;47.506;19.158;2023-02-15T15:06:56;35.78;;;23.00;;
67571;SDS011;54397;47.506;19.158;2023-02-15T15:10:45;31.27;;;22.15;;
67571;SDS011;54397;47.506;19.158;2023-02-15T15:14:13;32.72;;;22.27;;
67571;SDS011;54397;47.506;19.158;2023-02-15T15:17:55;31.60;;;22.55;;
67571;SDS011;54397;47.506;19.158;2023-02-15T15:21:51;28.02;;;20.05;;
67571;SDS011;54397;47.506;19.158;2023-02-15T15:28:56;28.52;;;20.67;;
67571;SDS011;54397;47.506;19.158;2023-02-15T15:32:21;32.70;;;21.05;;
67571;SDS011;54397;47.506;19.158;2023-02-15T15:50:39;28.33;;;20.30;;
67571;SDS011;54397;47.506;19.158;2023-02-15T15:54:02;29.08;;;20.13;;
67571;SDS011;54397;47.506;19.158;2023-02-15T15:57:27;33.47;;;21.65;;
67571;SDS011;54397;47.506;19.158;2023-02-15T16:00:55;32.10;;;20.60;;
67571;SDS011;54397;47.506;19.158;2023-02-15T16:04:27;32.85;;;21.90;;
67571;SDS011;54397;47.506;19.158;2023-02-15T16:07:51;35.22;;;21.95;;
67571;SDS011;54397;47.506;19.158;2023-02-15T16:11:23;35.83;;;23.20;;
67571;SDS011;54397;47.506;19.158;2023-02-15T16:14:47;42.20;;;28.13;;
67571;SDS011;54397;47.506;19.158;2023-02-15T16:18:13;31.42;;;21.50;;
67571;SDS011;54397;47.506;19.158;2023-02-15T16:21:37;41.65;;;24.83;;
67571;SDS011;54397;47.506;19.158;2023-02-15T16:28:39;33.10;;;22.60;;
67571;SDS011;54397;47.506;19.158;2023-02-15T16:32:03;34.97;;;21.58;;
67571;SDS011;54397;47.506;19.158;2023-02-15T16:35:27;31.10;;;21.17;;
67571;SDS011;54397;47.506;19.158;2023-02-15T16:42:11;31.02;;;21.27;;
67571;SDS011;54397;47.506;19.158;2023-02-15T16:45:34;31.58;;;21.30;;
67571;SDS011;54397;47.506;19.158;2023-02-15T16:49:00;31.50;;;21.73;;
67571;SDS011;54397;47.506;19.158;2023-02-15T16:52:28;32.08;;;21.45;;
67571;SDS011;54397;47.506;19.158;2023-02-15T16:55:51;33.47;;;22.20;;
67571;SDS011;54397;47.506;19.158;2023-02-15T16:59:35;41.38;;;22.10;;
67571;SDS011;54397;47.506;19.158;2023-02-15T17:06:25;36.60;;;22.67;;
67571;SDS011;54397;47.506;19.158;2023-02-15T17:09:52;40.53;;;23.80;;
67571;SDS011;54397;47.506;19.158;2023-02-15T17:13:15;38.85;;;23.35;;
67571;SDS011;54397;47.506;19.158;2023-02-15T17:16:58;48.83;;;23.25;;
67571;SDS011;54397;47.506;19.158;2023-02-15T17:20:31;43.55;;;23.80;;
67571;SDS011;54397;47.506;19.158;2023-02-15T17:23:58;39.50;;;25.27;;
67571;SDS011;54397;47.506;19.158;2023-02-15T17:27:26;38.93;;;25.47;;
67571;SDS011;54397;47.506;19.158;2023-02-15T17:30:50;41.80;;;26.20;;
67571;SDS011;54397;47.506;19.158;2023-02-15T17:41:40;64.20;;;27.57;;
67571;SDS011;54397;47.506;19.158;2023-02-15T17:45:05;47.07;;;25.77;;
67571;SDS011;54397;47.506;19.158;2023-02-15T17:48:31;54.70;;;26.40;;
67571;SDS011;54397;47.506;19.158;2023-02-15T17:51:54;74.97;;;30.70;;
67571;SDS011;54397;47.506;19.158;2023-02-15T17:55:21;80.17;;;34.97;;
67571;SDS011;54397;47.506;19.158;2023-02-15T17:58:56;77.03;;;35.47;;
67571;SDS011;54397;47.506;19.158;2023-02-15T18:02:18;78.77;;;33.47;;
67571;SDS011;54397;47.506;19.158;2023-02-15T18:05:58;82.87;;;31.30;;
67571;SDS011;54397;47.506;19.158;2023-02-15T18:09:39;79.30;;;31.90;;
67571;SDS011;54397;47.506;19.158;2023-02-15T18:13:19;71.23;;;31.87;;
67571;SDS011;54397;47.506;19.158;2023-02-15T18:16:41;71.93;;;30.07;;
67571;SDS011;54397;47.506;19.158;2023-02-15T18:20:09;79.00;;;28.67;;
67571;SDS011;54397;47.506;19.158;2023-02-15T18:23:44;65.67;;;30.23;;
67571;SDS011;54397;47.506;19.158;2023-02-15T18:27:06;71.83;;;31.17;;
67571;SDS011;54397;47.506;19.158;2023-02-15T18:30:27;54.60;;;28.60;;
67571;SDS011;54397;47.506;19.158;2023-02-15T18:33:50;59.57;;;28.43;;
67571;SDS011;54397;47.506;19.158;2023-02-15T18:37:17;67.27;;;28.03;;
67571;SDS011;54397;47.506;19.158;2023-02-15T18:40:40;65.90;;;28.73;;
67571;SDS011;54397;47.506;19.158;2023-02-15T18:44:09;56.80;;;27.90;;
67571;SDS011;54397;47.506;19.158;2023-02-15T18:47:32;49.23;;;25.83;;
67571;SDS011;54397;47.506;19.158;2023-02-15T18:50:56;55.23;;;25.97;;
67571;SDS011;54397;47.506;19.158;2023-02-15T18:54:21;50.43;;;25.37;;
67571;SDS011;54397;47.506;19.158;2023-02-15T18:57:45;50.17;;;24.50;;
67571;SDS011;54397;47.506;19.158;2023-02-15T19:01:11;52.40;;;26.30;;
67571;SDS011;54397;47.506;19.158;2023-02-15T19:04:36;47.28;;;25.27;;
67571;SDS011;54397;47.506;19.158;2023-02-15T19:07:58;50.07;;;27.30;;
67571;SDS011;54397;47.506;19.158;2023-02-15T19:11:23;53.70;;;29.60;;
67571;SDS011;54397;47.506;19.158;2023-02-15T19:14:49;52.80;;;27.57;;
67571;SDS011;54397;47.506;19.158;2023-02-15T19:18:13;53.70;;;27.60;;
67571;SDS011;54397;47.506;19.158;2023-02-15T19:21:39;58.93;;;29.83;;
67571;SDS011;54397;47.506;19.158;2023-02-15T19:25:02;54.33;;;26.53;;
67571;SDS011;54397;47.506;19.158;2023-02-15T19:28:28;55.83;;;26.50;;
67571;SDS011;54397;47.506;19.158;2023-02-15T19:31:52;49.77;;;26.13;;
67571;SDS011;54397;47.506;19.158;2023-02-15T19:35:19;49.90;;;26.30;;
67571;SDS011;54397;47.506;19.158;2023-02-15T19:38:43;52.50;;;26.03;;
67571;SDS011;54397;47.506;19.158;2023-02-15T19:42:12;50.67;;;23.97;;
67571;SDS011;54397;47.506;19.158;2023-02-15T19:45:35;53.63;;;26.67;;
67571;SDS011;54397;47.506;19.158;2023-02-15T19:48:57;41.93;;;25.67;;
67571;SDS011;54397;47.506;19.158;2023-02-15T19:52:19;42.63;;;25.30;;
67571;SDS011;54397;47.506;19.158;2023-02-15T19:55:45;48.33;;;26.13;;
67571;SDS011;54397;47.506;19.158;2023-02-15T19:59:14;43.43;;;25.13;;
67571;SDS011;54397;47.506;19.158;2023-02-15T20:02:45;40.10;;;25.90;;
67571;SDS011;54397;47.506;19.158;2023-02-15T20:06:10;48.90;;;24.93;;
67571;SDS011;54397;47.506;19.158;2023-02-15T20:09:37;46.30;;;26.40;;
67571;SDS011;54397;47.506;19.158;2023-02-15T20:13:01;48.50;;;25.83;;
67571;SDS011;54397;47.506;19.158;2023-02-15T20:16:23;54.13;;;28.97;;
67571;SDS011;54397;47.506;19.158;2023-02-15T20:19:49;51.87;;;29.20;;
67571;SDS011;54397;47.506;19.158;2023-02-15T20:23:24;53.07;;;28.57;;
67571;SDS011;54397;47.506;19.158;2023-02-15T20:26:51;47.90;;;26.63;;
67571;SDS011;54397;47.506;19.158;2023-02-15T20:30:17;48.20;;;28.03;;
67571;SDS011;54397;47.506;19.158;2023-02-15T20:33:41;59.87;;;28.80;;
67571;SDS011;54397;47.506;19.158;2023-02-15T20:37:03;58.90;;;29.40;;
67571;SDS011;54397;47.506;19.158;2023-02-15T20:40:31;66.73;;;33.83;;
67571;SDS011;54397;47.506;19.158;2023-02-15T20:43:55;68.57;;;30.97;;
67571;SDS011;54397;47.506;19.158;2023-02-15T20:47:19;60.37;;;29.90;;
67571;SDS011;54397;47.506;19.158;2023-02-15T20:50:41;62.43;;;31.07;;
67571;SDS011;54397;47.506;19.158;2023-02-15T20:54:13;58.93;;;28.30;;
67571;SDS011;54397;47.506;19.158;2023-02-15T20:57:36;53.63;;;29.10;;
67571;SDS011;54397;47.506;19.158;2023-02-15T21:00:58;69.27;;;34.43;;
67571;SDS011;54397;47.506;19.158;2023-02-15T21:04:25;57.60;;;32.60;;
67571;SDS011;54397;47.506;19.158;2023-02-15T21:07:51;65.33;;;28.87;;
67571;SDS011;54397;47.506;19.158;2023-02-15T21:11:20;61.20;;;31.53;;
67571;SDS011;54397;47.506;19.158;2023-02-15T21:14:43;56.97;;;32.47;;
67571;SDS011;54397;47.506;19.158;2023-02-15T21:18:25;64.77;;;31.53;;
67571;SDS011;54397;47.506;19.158;2023-02-15T21:21:58;52.57;;;29.00;;
67571;SDS011;54397;47.506;19.158;2023-02-15T21:25:23;73.43;;;33.00;;
67571;SDS011;54397;47.506;19.158;2023-02-15T21:28:51;63.10;;;32.30;;
67571;SDS011;54397;47.506;19.158;2023-02-15T21:32:16;66.10;;;33.33;;
67571;SDS011;54397;47.506;19.158;2023-02-15T21:35:41;68.47;;;31.17;;
67571;SDS011;54397;47.506;19.158;2023-02-15T21:39:04;63.13;;;32.93;;
67571;SDS011;54397;47.506;19.158;2023-02-15T21:42:27;70.47;;;33.47;;
67571;SDS011;54397;47.506;19.158;2023-02-15T21:46:13;79.30;;;37.93;;
67571;SDS011;54397;47.506;19.158;2023-02-15T21:49:57;64.67;;;35.10;;
67571;SDS011;54397;47.506;19.158;2023-02-15T21:53:44;80.10;;;37.47;;
67571;SDS011;54397;47.506;19.158;2023-02-15T21:57:16;68.73;;;35.87;;
67571;SDS011;54397;47.506;19.158;2023-02-15T22:00:43;84.13;;;39.77;;
67571;SDS011;54397;47.506;19.158;2023-02-15T22:04:09;68.67;;;36.40;;
67571;SDS011;54397;47.506;19.158;2023-02-15T22:07:34;84.60;;;37.37;;
67571;SDS011;54397;47.506;19.158;2023-02-15T22:10:57;81.70;;;38.27;;
67571;SDS011;54397;47.506;19.158;2023-02-15T22:18:01;78.83;;;34.43;;
67571;SDS011;54397;47.506;19.158;2023-02-15T22:21:25;72.17;;;35.77;;
67571;SDS011;54397;47.506;19.158;2023-02-15T22:24:49;67.37;;;34.27;;
67571;SDS011;54397;47.506;19.158;2023-02-15T22:28:12;70.40;;;36.27;;
67571;SDS011;54397;47.506;19.158;2023-02-15T22:31:37;77.63;;;37.27;;
67571;SDS011;54397;47.506;19.158;2023-02-15T22:34:59;74.20;;;38.47;;
67571;SDS011;54397;47.506;19.158;2023-02-15T22:38:30;84.53;;;38.77;;
67571;SDS011;54397;47.506;19.158;2023-02-15T22:41:52;79.00;;;38.20;;
67571;SDS011;54397;47.506;19.158;2023-02-15T22:45:23;84.70;;;41.83;;
67571;SDS011;54397;47.506;19.158;2023-02-15T22:48:50;76.33;;;39.20;;
67571;SDS011;54397;47.506;19.158;2023-02-15T22:52:14;82.53;;;41.20;;
67571;SDS011;54397;47.506;19.158;2023-02-15T22:55:37;75.97;;;38.97;;
67571;SDS011;54397;47.506;19.158;2023-02-15T22:59:02;76.70;;;39.13;;
67571;SDS011;54397;47.506;19.158;2023-02-15T23:02:28;72.80;;;37.90;;
67571;SDS011;54397;47.506;19.158;2023-02-15T23:05:50;88.00;;;37.03;;
67571;SDS011;54397;47.506;19.158;2023-02-15T23:09:15;83.57;;;38.20;;
67571;SDS011;54397;47.506;19.158;2023-02-15T23:12:36;71.10;;;38.17;;
67571;SDS011;54397;47.506;19.158;2023-02-15T23:16:19;86.50;;;38.47;;
67571;SDS011;54397;47.506;19.158;2023-02-15T23:19:40;82.97;;;42.37;;
67571;SDS011;54397;47.506;19.158;2023-02-15T23:23:07;96.43;;;47.40;;
67571;SDS011;54397;47.506;19.158;2023-02-15T23:26:31;77.73;;;41.13;;
67571;SDS011;54397;47.506;19.158;2023-02-15T23:29:53;83.93;;;37.37;;
67571;SDS011;54397;47.506;19.158;2023-02-15T23:33:17;66.23;;;37.57;;
67571;SDS011;54397;47.506;19.158;2023-02-15T23:36:40;73.03;;;37.17;;